Nearby METAR Reports

 

LEVC - Valencia (civ/Mi, Spain
Distacia desde Piles: NO 69km
Actu.: 23/04/2018 13:00
Despejado
Despejado
 Viento del E
Viento: E 15 km/h
Temperatura: 23°C
Rocío: 10°C
Humedad: 44%
Barómetro: 1019 hPa
Resumen: Despejado
Visibility: greater than 10 km
2018/04/23 11:00 LEVC 231100Z 09008KT 060V130 CAVOK 23/10 Q1019 NOSIG
LEAL - Alicante/El Alte, Spain
Distacia desde Piles: SSO 94km
Actu.: 23/04/2018 13:00
Despejado
Despejado
 Viento del ENE
Viento: ENE 26 km/h
Temperatura: 24°C
Rocío: 12°C
Humedad: 47%
Barómetro: 1017 hPa
Resumen: Despejado
Visibility: greater than 10 km
2018/04/23 11:00 LEAL 231100Z 07014KT CAVOK 24/12 Q1017 NOSIG
 
LEIB - Ibiza/Es Codola, Spain
Distacia desde Piles: E 119km
Actu.: 23/04/2018 13:00
Despejado
Despejado
 Viento del ENE
Viento: ENE 31 km/h
Temperatura: 21°C
Rocío: 11°C
Humedad: 53%
Barómetro: 1018 hPa
Resumen: Despejado
Visibility: greater than 10 km
2018/04/23 11:00 LEIB 231100Z 06017KT CAVOK 21/11 Q1018 NOSIG
LELC - San Javier(Mil/C, Spain
Distacia desde Piles: SSO 154km
Actu.: 23/04/2018 13:00
Despejado
Despejado
 Viento del NE
Viento: NE 28 km/h
Temperatura: 22°C
Rocío: 13°C
Humedad: 57%
Barómetro: 1018 hPa
Resumen: Despejado
Visibility: greater than 10 km
2018/04/23 11:00 LELC 231100Z 04015KT 010V070 CAVOK 22/13 Q1018 NOSIG
 
LERI - Alcantarilla(Sp-, Spain
Distacia desde Piles: SO 158km
Actu.: 23/04/2018 12:00
Despejado
Despejado
 Viento del varies
Viento: varies 7 km/h
Temperatura: 24°C
Rocío: 5°C
Humedad: 29%
Barómetro: 1018 hPa
Resumen: Despejado
Visibility: greater than 10 km
2018/04/23 10:00 LERI 231000Z VRB04KT CAVOK 24/05 Q1018 NOSIG
LEAB - Albacete (civ/Mi, Spain
Distacia desde Piles: O 160km
Actu.: 23/04/2018 13:00
Despejado
Despejado
 Viento del SSE
Viento: SSE 11 km/h
Temperatura: 21°C
Rocío: 4°C
Humedad: 33%
Barómetro: 1020 hPa
Resumen: Despejado
Visibility: greater than 10 km
2018/04/23 11:00 LEAB 231100Z 15006KT 110V190 CAVOK 21/04 Q1020 NOSIG